createdAt,value
2017-11-29T00:01:23.173Z,3.40
2017-11-29T00:03:51.002Z,3.40
2017-11-29T00:06:19.248Z,3.40
2017-11-29T00:08:46.748Z,3.40
2017-11-29T00:11:14.256Z,3.30
2017-11-29T00:13:42.444Z,3.20
2017-11-29T00:16:10.299Z,3.20
2017-11-29T00:18:38.263Z,3.20
2017-11-29T00:21:06.437Z,3.30
2017-11-29T00:23:33.959Z,3.30
2017-11-29T00:26:01.464Z,3.30
2017-11-29T00:28:29.239Z,3.20
2017-11-29T00:30:57.045Z,3.10
2017-11-29T00:33:24.565Z,3.20
2017-11-29T00:35:52.150Z,3.10
2017-11-29T00:38:19.655Z,3.10
2017-11-29T00:40:47.156Z,3.20
2017-11-29T00:43:15.228Z,3.20
2017-11-29T00:45:42.746Z,3.30
2017-11-29T00:48:11.348Z,3.30
2017-11-29T00:50:38.906Z,3.30
2017-11-29T00:53:06.416Z,3.30
2017-11-29T00:55:34.075Z,3.40
2017-11-29T00:58:01.784Z,3.40
2017-11-29T01:00:29.292Z,3.40
2017-11-29T01:02:56.794Z,3.40
2017-11-29T01:05:24.415Z,3.30
2017-11-29T01:07:51.925Z,3.10
2017-11-29T01:10:19.784Z,3.10
2017-11-29T01:12:48.112Z,3.20
2017-11-29T01:15:16.218Z,3.20
2017-11-29T01:17:43.740Z,3.20
2017-11-29T01:20:11.515Z,3.30
2017-11-29T01:22:39.065Z,3.30
2017-11-29T01:25:06.601Z,3.30
2017-11-29T01:27:34.205Z,3.40
2017-11-29T01:30:01.716Z,3.30
2017-11-29T01:32:30.209Z,3.30
2017-11-29T01:34:58.373Z,3.00
2017-11-29T01:37:25.879Z,2.80
2017-11-29T01:39:53.411Z,2.80
2017-11-29T01:42:21.333Z,2.80
2017-11-29T01:44:48.841Z,2.70
2017-11-29T01:47:16.881Z,2.70
2017-11-29T01:49:44.876Z,2.70
2017-11-29T01:52:13.227Z,2.70
2017-11-29T01:54:41.428Z,2.60
2017-11-29T01:57:09.122Z,2.70
2017-11-29T01:59:36.632Z,2.70
2017-11-29T02:02:04.136Z,2.70
2017-11-29T02:04:31.712Z,2.60
2017-11-29T02:06:59.221Z,2.60
2017-11-29T02:09:26.764Z,2.60
2017-11-29T02:11:54.328Z,2.70
2017-11-29T02:14:21.846Z,2.80
2017-11-29T02:16:50.340Z,2.70
2017-11-29T02:19:18.649Z,2.70
2017-11-29T02:21:46.147Z,2.70
2017-11-29T02:24:14.016Z,2.60
2017-11-29T02:26:41.569Z,2.40
2017-11-29T02:29:10.219Z,2.30
2017-11-29T02:31:38.394Z,2.20
2017-11-29T02:34:05.996Z,2.20
2017-11-29T02:36:33.508Z,2.30
2017-11-29T02:39:01.017Z,2.30
2017-11-29T02:41:40.250Z,2.40
2017-11-29T02:44:07.765Z,2.40
2017-11-29T02:46:35.282Z,2.40
2017-11-29T02:49:02.844Z,2.40
2017-11-29T02:51:30.794Z,2.50
2017-11-29T02:53:58.308Z,2.50
2017-11-29T02:56:25.963Z,2.40
2017-11-29T02:58:53.472Z,2.40
2017-11-29T03:01:20.981Z,2.40
2017-11-29T03:03:48.525Z,2.40
2017-11-29T03:06:16.041Z,2.40
2017-11-29T03:08:43.555Z,2.40
2017-11-29T03:11:11.108Z,2.40
2017-11-29T03:13:39.194Z,2.30
2017-11-29T03:16:06.802Z,2.40
2017-11-29T03:18:34.500Z,2.30
2017-11-29T03:21:02.050Z,2.20
2017-11-29T03:23:29.627Z,2.00
2017-11-29T03:25:57.653Z,1.90
2017-11-29T03:28:25.579Z,1.70
2017-11-29T03:30:53.817Z,1.60
2017-11-29T03:33:21.355Z,1.40
2017-11-29T03:35:48.856Z,1.20
2017-11-29T03:38:16.420Z,1.10
2017-11-29T03:40:43.928Z,1.00
2017-11-29T03:43:11.441Z,1.00
2017-11-29T03:45:38.986Z,1.00
2017-11-29T03:48:06.509Z,1.10
2017-11-29T03:50:34.687Z,1.10
2017-11-29T03:53:02.017Z,1.00
2017-11-29T03:55:29.520Z,1.10
2017-11-29T03:57:57.348Z,1.10
2017-11-29T04:00:24.903Z,1.10
2017-11-29T04:02:52.412Z,1.00
2017-11-29T04:05:19.928Z,0.90
2017-11-29T04:07:47.755Z,0.80
2017-11-29T04:10:15.291Z,0.70
2017-11-29T04:12:42.929Z,0.70
2017-11-29T04:15:11.118Z,0.60
2017-11-29T04:17:39.202Z,0.60
2017-11-29T04:20:06.804Z,0.50
2017-11-29T04:22:34.493Z,0.50
2017-11-29T04:25:02.017Z,0.40
2017-11-29T04:27:29.536Z,0.30
2017-11-29T04:29:57.102Z,0.30
2017-11-29T04:32:24.615Z,0.30
2017-11-29T04:34:52.115Z,0.30
2017-11-29T04:37:20.177Z,0.40
2017-11-29T04:39:47.672Z,0.80
2017-11-29T04:42:15.188Z,1.00
2017-11-29T04:44:42.756Z,1.10
2017-11-29T04:47:10.769Z,1.10
2017-11-29T04:49:38.289Z,1.20
2017-11-29T04:52:06.502Z,1.10
2017-11-29T04:54:34.288Z,1.00
2017-11-29T04:57:01.791Z,0.90
2017-11-29T04:59:29.360Z,0.90
2017-11-29T05:01:57.921Z,0.80
2017-11-29T05:04:25.443Z,0.80
2017-11-29T05:06:53.004Z,0.80
2017-11-29T05:09:20.508Z,0.80
2017-11-29T05:11:48.013Z,0.70
2017-11-29T05:14:15.589Z,0.70
2017-11-29T05:16:43.099Z,0.70
2017-11-29T05:19:10.657Z,0.70
2017-11-29T05:21:38.226Z,0.60
2017-11-29T05:24:05.746Z,0.50
2017-11-29T05:26:33.787Z,0.60
2017-11-29T05:29:01.335Z,0.60
2017-11-29T05:31:28.852Z,0.70
2017-11-29T05:33:56.359Z,0.70
2017-11-29T05:36:23.964Z,0.70
2017-11-29T05:38:51.808Z,0.80
2017-11-29T05:41:19.322Z,0.70
2017-11-29T05:43:46.896Z,0.70
2017-11-29T05:46:14.411Z,0.80
2017-11-29T05:48:41.927Z,0.90
2017-11-29T05:51:09.471Z,0.90
2017-11-29T05:53:37.000Z,0.90
2017-11-29T05:56:04.841Z,0.90
2017-11-29T05:58:32.421Z,0.90
2017-11-29T06:00:59.935Z,0.90
2017-11-29T06:03:27.456Z,0.90
2017-11-29T06:05:55.725Z,1.00
2017-11-29T06:08:23.885Z,1.00
2017-11-29T06:10:52.168Z,1.10
2017-11-29T06:13:21.176Z,1.10
2017-11-29T06:15:48.688Z,1.10
2017-11-29T06:18:16.525Z,1.20
2017-11-29T06:20:44.084Z,1.20
2017-11-29T06:23:11.788Z,1.20
2017-11-29T06:25:39.305Z,1.10
2017-11-29T06:28:06.893Z,1.10
2017-11-29T06:30:34.405Z,0.90
2017-11-29T06:33:02.426Z,0.90
2017-11-29T06:35:29.997Z,0.90
2017-11-29T06:37:58.278Z,0.90
2017-11-29T06:40:26.772Z,0.90
2017-11-29T06:42:54.404Z,0.80
2017-11-29T06:45:21.915Z,0.90
2017-11-29T06:47:49.628Z,0.90
2017-11-29T06:50:17.210Z,0.80
2017-11-29T06:52:45.492Z,0.90
2017-11-29T06:55:14.592Z,0.90
2017-11-29T06:57:42.168Z,0.90
2017-11-29T07:00:09.676Z,1.00
2017-11-29T07:02:37.191Z,1.00
2017-11-29T07:05:05.153Z,0.90
2017-11-29T07:07:32.747Z,1.00
2017-11-29T07:10:01.023Z,0.90
2017-11-29T07:12:28.552Z,0.90
2017-11-29T07:14:56.136Z,0.90
2017-11-29T07:17:23.669Z,0.80
2017-11-29T07:19:51.199Z,0.80
2017-11-29T07:22:18.769Z,0.70
2017-11-29T07:24:46.280Z,0.80
2017-11-29T07:27:14.334Z,0.90
2017-11-29T07:29:41.900Z,1.00
2017-11-29T07:32:09.907Z,1.20
2017-11-29T07:34:37.416Z,1.30
2017-11-29T07:37:05.892Z,1.30
2017-11-29T07:39:33.406Z,1.40
2017-11-29T07:42:00.925Z,1.60
2017-11-29T07:44:28.489Z,1.80
2017-11-29T07:46:57.278Z,2.10
2017-11-29T07:49:24.793Z,2.20
2017-11-29T07:51:52.573Z,2.40
2017-11-29T07:54:20.085Z,2.50
2017-11-29T07:56:47.812Z,2.70
2017-11-29T07:59:15.386Z,2.70
2017-11-29T08:01:42.900Z,2.90
2017-11-29T08:04:10.408Z,3.00
2017-11-29T08:06:37.965Z,3.10
2017-11-29T08:09:05.481Z,3.20
2017-11-29T08:11:33.149Z,3.40
2017-11-29T08:14:00.718Z,3.40
2017-11-29T08:16:28.231Z,3.50
2017-11-29T08:18:55.735Z,3.50
2017-11-29T08:21:23.845Z,3.40
2017-11-29T08:23:51.440Z,3.60
2017-11-29T08:26:19.532Z,3.80
2017-11-29T08:28:47.101Z,3.90
2017-11-29T08:31:14.604Z,4.10
2017-11-29T08:33:42.629Z,4.00
2017-11-29T08:36:10.200Z,4.00
2017-11-29T08:38:37.703Z,4.20
2017-11-29T08:41:05.985Z,4.10
2017-11-29T08:43:33.852Z,4.10
2017-11-29T08:46:01.369Z,4.10
2017-11-29T08:48:28.872Z,4.10
2017-11-29T08:50:56.602Z,4.30
2017-11-29T08:53:24.112Z,4.50
2017-11-29T08:55:51.620Z,4.50
2017-11-29T08:58:19.244Z,4.50
2017-11-29T09:00:46.951Z,4.60
2017-11-29T09:03:14.461Z,4.70
2017-11-29T09:05:41.975Z,4.40
2017-11-29T09:08:09.545Z,4.70
2017-11-29T09:10:37.061Z,5.00
2017-11-29T09:13:05.047Z,4.90
2017-11-29T09:15:32.609Z,4.80
2017-11-29T09:17:59.952Z,4.40
2017-11-29T09:20:27.619Z,4.20
2017-11-29T09:22:55.200Z,4.20
2017-11-29T09:25:22.745Z,4.20
2017-11-29T09:27:50.316Z,4.20
2017-11-29T09:30:17.824Z,4.30
2017-11-29T09:32:45.338Z,4.30
2017-11-29T09:35:12.900Z,4.40
2017-11-29T09:37:40.413Z,4.40
2017-11-29T09:40:08.157Z,4.50
2017-11-29T09:42:35.733Z,4.70
2017-11-29T09:45:03.444Z,4.90
2017-11-29T09:47:30.944Z,5.00
2017-11-29T09:49:58.497Z,5.30
2017-11-29T09:52:26.008Z,5.60
2017-11-29T09:54:53.548Z,5.80
2017-11-29T09:57:21.161Z,5.60
2017-11-29T09:59:49.424Z,6.10
2017-11-29T10:02:16.924Z,6.10
2017-11-29T10:04:44.481Z,6.30
2017-11-29T10:07:11.992Z,6.60
2017-11-29T10:09:39.605Z,6.60
2017-11-29T10:12:07.183Z,7.00
2017-11-29T10:14:34.868Z,6.90
2017-11-29T10:17:02.369Z,7.00
2017-11-29T10:19:30.304Z,6.90
2017-11-29T10:21:57.820Z,6.80
2017-11-29T10:24:25.333Z,6.60
2017-11-29T10:26:52.897Z,6.90
2017-11-29T10:29:21.169Z,7.40
2017-11-29T10:31:48.668Z,7.30
2017-11-29T10:34:16.225Z,6.50
2017-11-29T10:36:43.746Z,6.30
2017-11-29T10:39:12.013Z,6.60
2017-11-29T10:41:39.827Z,6.60
2017-11-29T10:44:07.332Z,6.80
2017-11-29T10:46:34.847Z,6.90
2017-11-29T10:49:02.400Z,6.50
2017-11-29T10:51:29.900Z,6.50
2017-11-29T10:53:57.406Z,6.40
2017-11-29T10:56:24.960Z,6.20
2017-11-29T10:58:52.527Z,6.00
2017-11-29T11:01:20.205Z,5.60
2017-11-29T11:03:47.724Z,5.70
2017-11-29T11:06:15.336Z,5.50
2017-11-29T11:08:42.901Z,5.50
2017-11-29T11:11:10.412Z,5.30
2017-11-29T11:13:38.694Z,4.90
2017-11-29T11:16:06.244Z,4.80
2017-11-29T11:18:33.806Z,4.80
2017-11-29T11:21:02.072Z,4.60
2017-11-29T11:23:29.640Z,4.60
2017-11-29T11:25:57.143Z,4.50
2017-11-29T11:28:24.649Z,4.40
2017-11-29T11:30:52.220Z,4.40
2017-11-29T11:33:19.739Z,4.30
2017-11-29T11:35:47.244Z,4.20
2017-11-29T11:38:14.790Z,4.20
2017-11-29T11:40:42.300Z,4.10
2017-11-29T11:43:10.363Z,4.10
2017-11-29T11:45:37.900Z,4.00
2017-11-29T11:48:05.417Z,3.90
2017-11-29T11:50:33.292Z,3.80
2017-11-29T11:53:02.377Z,3.80
2017-11-29T11:55:29.909Z,3.70
2017-11-29T11:57:57.504Z,3.80
2017-11-29T12:00:25.048Z,3.90
2017-11-29T12:02:52.543Z,3.90
2017-11-29T12:05:20.880Z,3.90
2017-11-29T12:07:48.383Z,3.90
2017-11-29T12:10:15.883Z,4.00
2017-11-29T12:12:43.447Z,4.00
2017-11-29T12:15:10.962Z,4.10
2017-11-29T12:17:38.475Z,4.10
2017-11-29T12:20:06.027Z,4.20
2017-11-29T12:22:34.501Z,4.40
2017-11-29T12:25:02.030Z,4.40
2017-11-29T12:27:29.598Z,4.50
2017-11-29T12:29:57.107Z,4.50
2017-11-29T12:32:24.659Z,4.40
2017-11-29T12:34:52.228Z,4.20
2017-11-29T12:37:20.540Z,4.10
2017-11-29T12:39:48.047Z,4.10
2017-11-29T12:42:15.653Z,4.10
2017-11-29T12:44:43.159Z,4.20
2017-11-29T12:47:10.661Z,4.20
2017-11-29T12:49:50.755Z,4.30
2017-11-29T12:52:18.255Z,4.30
2017-11-29T12:54:45.757Z,4.40
2017-11-29T12:57:13.311Z,4.50
2017-11-29T12:59:40.808Z,4.60
2017-11-29T13:02:08.316Z,4.60
2017-11-29T13:04:36.612Z,4.70
2017-11-29T13:07:04.121Z,4.70
2017-11-29T13:09:31.696Z,4.70
2017-11-29T13:11:59.963Z,4.60
2017-11-29T13:14:27.474Z,4.60
2017-11-29T13:16:55.060Z,4.20
2017-11-29T13:19:22.560Z,4.00
2017-11-29T13:21:50.825Z,3.90
2017-11-29T13:24:18.393Z,3.90
2017-11-29T13:26:45.942Z,3.70
2017-11-29T13:29:13.452Z,3.70
2017-11-29T13:31:41.094Z,3.60
2017-11-29T13:34:08.608Z,3.60
2017-11-29T13:36:36.116Z,3.50
2017-11-29T13:39:03.756Z,3.30
2017-11-29T13:41:31.257Z,3.20
2017-11-29T13:43:58.772Z,3.10
2017-11-29T13:46:27.080Z,3.10
2017-11-29T13:48:54.580Z,3.00
2017-11-29T13:51:22.091Z,3.10
2017-11-29T13:53:49.655Z,3.10
2017-11-29T13:56:17.161Z,3.10
2017-11-29T13:58:44.662Z,3.20
2017-11-29T14:01:12.204Z,3.20
2017-11-29T14:03:40.481Z,3.20
2017-11-29T14:06:08.932Z,3.10
2017-11-29T14:08:36.492Z,3.10
2017-11-29T14:11:04.020Z,3.00
2017-11-29T14:13:32.021Z,2.90
2017-11-29T14:16:02.191Z,2.60
2017-11-29T14:18:29.592Z,2.60
2017-11-29T14:20:57.279Z,2.60
2017-11-29T14:23:24.828Z,2.50
2017-11-29T14:25:53.149Z,2.50
2017-11-29T14:28:20.720Z,2.50
2017-11-29T14:30:48.228Z,2.50
2017-11-29T14:33:16.501Z,2.50
2017-11-29T14:35:44.922Z,2.60
2017-11-29T14:38:12.424Z,2.50
2017-11-29T14:40:39.925Z,2.60
2017-11-29T14:43:07.521Z,2.70
2017-11-29T14:45:35.241Z,2.90
2017-11-29T14:48:03.510Z,3.10
2017-11-29T14:50:31.797Z,3.20
2017-11-29T14:52:59.365Z,3.20
2017-11-29T14:55:26.873Z,3.20
2017-11-29T14:57:54.383Z,3.20
2017-11-29T15:00:21.943Z,3.20
2017-11-29T15:02:49.561Z,3.20
2017-11-29T15:05:17.069Z,3.10
2017-11-29T15:07:44.692Z,3.10
2017-11-29T15:10:12.191Z,3.20
2017-11-29T15:12:39.696Z,3.20
2017-11-29T15:15:07.252Z,3.10
2017-11-29T15:17:35.632Z,3.10
2017-11-29T15:20:03.136Z,3.00
2017-11-29T15:22:30.694Z,2.90
2017-11-29T15:24:58.193Z,3.00
2017-11-29T15:27:25.700Z,2.90
2017-11-29T15:29:54.049Z,2.90
2017-11-29T15:32:21.556Z,2.90
2017-11-29T15:34:49.220Z,2.80
2017-11-29T15:37:16.890Z,2.70
2017-11-29T15:39:44.395Z,2.70
2017-11-29T15:42:11.900Z,2.70
2017-11-29T15:44:39.464Z,2.70
2017-11-29T15:47:06.974Z,2.60
2017-11-29T15:49:34.479Z,2.60
2017-11-29T15:52:02.122Z,2.50
2017-11-29T15:54:30.404Z,2.50
2017-11-29T15:56:57.912Z,2.50
2017-11-29T15:59:25.472Z,2.50
2017-11-29T16:01:52.976Z,2.60
2017-11-29T16:04:21.236Z,2.40
2017-11-29T16:06:49.559Z,2.30
2017-11-29T16:09:17.072Z,2.30
2017-11-29T16:11:44.601Z,2.30
2017-11-29T16:14:12.144Z,2.20
2017-11-29T16:16:39.656Z,2.20
2017-11-29T16:19:07.173Z,2.00
2017-11-29T16:21:34.847Z,2.00
2017-11-29T16:24:02.349Z,2.00
2017-11-29T16:26:30.486Z,1.80
2017-11-29T16:28:58.053Z,1.60
2017-11-29T16:31:26.328Z,1.30
2017-11-29T16:33:53.836Z,1.30
2017-11-29T16:36:21.387Z,1.30
2017-11-29T16:38:48.904Z,1.20
2017-11-29T16:41:17.197Z,1.30
2017-11-29T16:43:45.521Z,1.40
2017-11-29T16:46:13.033Z,1.40
2017-11-29T16:48:40.551Z,1.40
2017-11-29T16:51:08.204Z,1.40
2017-11-29T16:53:35.721Z,1.30
2017-11-29T16:56:03.236Z,1.20
2017-11-29T16:58:30.887Z,1.10
2017-11-29T17:00:58.340Z,0.90
2017-11-29T17:03:25.852Z,0.90
2017-11-29T17:05:53.595Z,0.90
2017-11-29T17:08:21.180Z,0.90
2017-11-29T17:10:48.691Z,0.90
2017-11-29T17:13:16.204Z,0.90
2017-11-29T17:15:43.776Z,1.00
2017-11-29T17:18:11.316Z,0.90
2017-11-29T17:20:39.165Z,0.90
2017-11-29T17:23:06.736Z,0.80
2017-11-29T17:25:34.250Z,0.70
2017-11-29T17:28:01.773Z,0.70
2017-11-29T17:30:29.337Z,0.70
2017-11-29T17:32:56.859Z,0.70
2017-11-29T17:35:25.836Z,0.70
2017-11-29T17:37:53.403Z,0.60
2017-11-29T17:40:21.689Z,0.50
2017-11-29T17:42:49.993Z,0.50
2017-11-29T17:45:17.569Z,0.50
2017-11-29T17:47:44.855Z,0.70
2017-11-29T17:50:12.369Z,0.70
2017-11-29T17:52:40.635Z,0.80
2017-11-29T17:55:08.472Z,0.80
2017-11-29T17:57:35.982Z,0.80
2017-11-29T18:00:03.854Z,0.80
2017-11-29T18:05:05.283Z,0.80
2017-11-29T18:07:33.620Z,0.90
2017-11-29T18:10:01.129Z,0.90
2017-11-29T18:12:28.643Z,0.80
2017-11-29T18:14:56.232Z,0.60
2017-11-29T18:17:23.785Z,0.50
2017-11-29T18:19:51.298Z,0.50
2017-11-29T18:22:19.045Z,0.40
2017-11-29T18:24:46.568Z,0.40
2017-11-29T18:27:14.848Z,0.30
2017-11-29T18:29:43.524Z,0.40
2017-11-29T18:32:11.036Z,0.40
2017-11-29T18:34:39.160Z,0.30
2017-11-29T18:37:07.504Z,0.20
2017-11-29T18:39:35.016Z,0.20
2017-11-29T18:42:02.540Z,0.30
2017-11-29T18:44:30.103Z,0.30
2017-11-29T18:46:57.937Z,0.30
2017-11-29T18:49:25.447Z,0.30
2017-11-29T18:51:53.016Z,0.30
2017-11-29T18:54:20.533Z,0.30
2017-11-29T18:56:48.052Z,0.20
2017-11-29T18:59:15.627Z,0.20
2017-11-29T19:01:43.695Z,0.20
2017-11-29T19:04:11.252Z,0.30
2017-11-29T19:06:38.851Z,0.30
2017-11-29T19:09:07.359Z,0.40
2017-11-29T19:11:34.872Z,0.50
2017-11-29T19:14:02.389Z,0.70
2017-11-29T19:16:30.048Z,0.80
2017-11-29T19:18:57.577Z,0.80
2017-11-29T19:21:25.101Z,0.90
2017-11-29T19:23:52.673Z,0.90
2017-11-29T19:26:20.187Z,0.80
2017-11-29T19:28:47.712Z,0.80
2017-11-29T19:31:15.296Z,0.90
2017-11-29T19:33:43.518Z,1.10
2017-11-29T19:36:11.027Z,1.20
2017-11-29T19:38:38.600Z,1.20
2017-11-29T19:41:06.130Z,1.30
2017-11-29T19:43:33.641Z,1.40
2017-11-29T19:46:01.220Z,1.40
2017-11-29T19:48:28.744Z,1.50
2017-11-29T19:50:57.085Z,1.40
2017-11-29T19:53:24.652Z,1.40
2017-11-29T19:55:52.333Z,1.20
2017-11-29T19:58:19.860Z,1.10
2017-11-29T20:00:47.984Z,1.00
2017-11-29T20:03:15.504Z,0.90
2017-11-29T20:05:43.021Z,0.90
2017-11-29T20:08:10.588Z,0.90
2017-11-29T20:10:38.105Z,1.00
2017-11-29T20:13:05.628Z,1.00
2017-11-29T20:15:33.192Z,1.00
2017-11-29T20:18:00.705Z,1.00
2017-11-29T20:20:28.216Z,1.00
2017-11-29T20:22:55.948Z,1.10
2017-11-29T20:25:23.464Z,0.90
2017-11-29T20:27:50.988Z,0.90
2017-11-29T20:30:18.571Z,1.00
2017-11-29T20:32:46.088Z,1.10
2017-11-29T20:35:14.289Z,1.10
2017-11-29T20:37:42.387Z,1.00
2017-11-29T20:40:10.673Z,1.00
2017-11-29T20:42:38.992Z,1.00
2017-11-29T20:45:07.273Z,0.90
2017-11-29T20:47:35.384Z,0.80
2017-11-29T20:50:02.902Z,0.70
2017-11-29T20:52:51.885Z,0.60
2017-11-29T20:55:19.412Z,0.60
2017-11-29T20:57:46.995Z,0.50
2017-11-29T21:00:15.287Z,0.40
2017-11-29T21:02:43.152Z,0.30
2017-11-29T21:05:11.432Z,0.30
2017-11-29T21:07:39.000Z,0.30
2017-11-29T21:10:06.518Z,0.40
2017-11-29T21:12:34.036Z,0.40
2017-11-29T21:15:01.629Z,0.30
2017-11-29T21:17:29.667Z,0.30
2017-11-29T21:19:57.180Z,0.20
2017-11-29T21:22:24.808Z,0.20
2017-11-29T21:24:53.345Z,0.10
2017-11-29T21:27:21.100Z,0.00
2017-11-29T21:29:49.504Z,0.00
2017-11-29T21:32:17.029Z,0.00
2017-11-29T21:34:45.137Z,0.00
2017-11-29T21:37:14.315Z,0.00
2017-11-29T21:39:42.606Z,0.10
2017-11-29T21:42:10.757Z,0.10
2017-11-29T21:44:39.354Z,0.20
2017-11-29T21:47:08.070Z,0.10
2017-11-29T21:49:35.615Z,0.10
2017-11-29T21:52:03.796Z,0.10
2017-11-29T21:54:31.188Z,0.00
2017-11-29T21:56:58.713Z,0.00
2017-11-29T21:59:26.291Z,0.10
2017-11-29T22:01:53.812Z,0.20
2017-11-29T22:04:22.169Z,0.30
2017-11-29T22:06:49.743Z,0.30
2017-11-29T22:09:18.352Z,0.30
2017-11-29T22:11:45.876Z,0.30
2017-11-29T22:14:13.436Z,0.30
2017-11-29T22:16:41.457Z,0.20
2017-11-29T22:19:09.030Z,0.10
2017-11-29T22:21:36.611Z,0.20
2017-11-29T22:24:04.137Z,0.20
2017-11-29T22:26:31.652Z,0.20
2017-11-29T22:29:00.208Z,0.10
2017-11-29T22:31:28.213Z,0.20
2017-11-29T22:33:56.763Z,0.20
2017-11-29T22:36:24.340Z,0.20
2017-11-29T22:38:51.866Z,0.10
2017-11-29T22:41:19.380Z,0.10
2017-11-29T22:43:47.313Z,-0.10
2017-11-29T22:46:14.861Z,-0.10
2017-11-29T22:48:42.384Z,-0.20
2017-11-29T22:51:09.965Z,-0.20
2017-11-29T22:53:37.665Z,-0.30
2017-11-29T22:56:05.764Z,-0.20
2017-11-29T22:58:33.384Z,-0.20
2017-11-29T23:01:01.845Z,-0.10
2017-11-29T23:03:29.371Z,-0.10
2017-11-29T23:05:56.952Z,-0.20
2017-11-29T23:08:24.473Z,-0.30
2017-11-29T23:10:52.009Z,-0.20
2017-11-29T23:13:20.111Z,-0.40
2017-11-29T23:15:48.397Z,-0.60
2017-11-29T23:18:15.921Z,-0.60
2017-11-29T23:20:43.497Z,-0.50
2017-11-29T23:23:11.016Z,-0.50
2017-11-29T23:25:38.548Z,-0.50
2017-11-29T23:28:06.259Z,-0.50
2017-11-29T23:30:33.776Z,-0.30
2017-11-29T23:33:01.292Z,-0.40
2017-11-29T23:35:29.273Z,-0.40
2017-11-29T23:37:57.608Z,-0.40
2017-11-29T23:40:25.131Z,-0.40
2017-11-29T23:42:52.720Z,-0.40
2017-11-29T23:45:20.257Z,-0.30
2017-11-29T23:47:47.776Z,-0.30
2017-11-29T23:50:15.802Z,-0.20
2017-11-29T23:52:43.328Z,-0.30
2017-11-29T23:55:10.852Z,-0.20
2017-11-29T23:57:38.420Z,-0.20
